Airfield :
LOGIN :

Register | Disclaimer

   EN    FR    IT 

 










Legend :    VFR   Marginal VFR   IFR   Intensive IFR   Very Intensive IFR
Visi :
Ceiling :
>= 8 km
>= 3000ft
5 to 8 km
1000 to 3000 ft
1500m to 5 km
500 to 1000 ft
800 to 1500m
200 to 500 ft
< 800m
< 200 ft
Symbols :   Thunderstorms  Fog  Heavy snow  Heavy precipitations  Wind > 20 kt
SIGMETs :     Misc.  Thunderstorms  Icing  Turbulence  Mountain Waves  Volcanic Ashes






- Airport Elevation : 1090 ft
- IATA code : CFE


LFLC - Clermont-Ferrand Auvergne

CURRENT METAR :
  • 171300Z AUTO 35016KT 310V010 9999 FEW052/// SCT070/// BKN084/// ///TCU 10/03 Q1015 BECMG SCT050

EXPIRED METARs :
  • 171230Z AUTO 34011KT 9999 FEW032/// SCT072/// OVC086/// //////TCU 11/01 Q1015 BECMG SCT050
  • 171200Z AUTO 34012KT 300V020 9999 FEW045/// BKN090/// ///CB 11/02 Q1015 TEMPO SHRA BECMG SCT050
  • 171130Z AUTO 35010KT 310V010 9999 FEW038/// BKN046/// BKN062/// //////CB 10/03 Q1016 TEMPO SHRA BECMG SCT050
  • 171100Z AUTO 33012KT 300V360 9999 -RA SCT030/// BKN045/// BKN058/// //////TCU 09/03 Q1016 TEMPO 34020G30KT 2000 SHGS FEW020CB BKN025TCU
  • 171030Z AUTO 29007KT 270V330 9999 FEW034/// BKN090/// ///TCU 09/04 Q1016 TEMPO 34020G30KT 2000 SHGS FEW020CB BKN025TCU
  • 171000Z AUTO 29014KT 9999 2500 -RA FEW027/// SCT038/// BKN047/// ///TCU 07/03 Q1016 TEMPO 34020G30KT 2000 SHGS FEW020CB BKN025TCU
  • 170930Z AUTO 36013KT 9999 1700 -RA FEW028/// BKN038/// BKN049/// ///TCU 08/04 Q1016 TEMPO 34020G30KT 2000 SHGS FEW020CB BKN025TCU
  • 170900Z AUTO 33011KT 280V360 9999 SCT038/// BKN045/// BKN066/// ///CB 10/02 Q1016 TEMPO 34020G30KT 2000 SHGS
  • 170830Z AUTO 34008KT 300V010 9999 SCT031 BKN038 10/03 Q1016 TEMPO 34020G30KT 2000 SHGS FEW020CB BKN025TCU

TAF TAF LFLC
Valid from the 17 at 12:00 until the 18 at 12:00 UTC


171100Z 1712/1812 32012KT 9999 SCT050
PROB40
TEMPO 1712/1713 SHRA SCT040TCU
TEMPO 1717/1803 RA BKN030
BECMG 1803/1805 36004KT BKN033
TEMPO 1807/1812 26012KT SHRA SCT025TCU
ATIS : +33 4 73 62 74 38



MET'MAP, your aeronautical weather chart ! - Copyright ORBIFLY December 2007 - Disclaimer

ORBIFLY MET'MAP TEAM :

Programming & Development : Alexandra Zaïnal
Original concept : Baudouin d'Aumeries
Technical & hardware support : Manuel Goepfert
Assistance : Marc-Olivier Méhu




SOURCES & CREDITS :

   NOAA